N7553B KASH-KASH
Flight info
| Callsign | N7553B |
|---|---|
| Flight time | 0h 4m |
| Altitude | 7000 |
| Route | N/A |
| Aircraft | C208/L-SDFGR/C |
Departure
| Time | 2026-04-26 18:50 |
|---|---|
| Airport | Nashua Airport / Boire Field (KASH) |
Arrival
| Time | 2026-04-26 18:54 |
|---|---|
| Airport | Nashua Airport / Boire Field (KASH) |
| Time | Latitude | Longitude | Altitude | Speed | Heading |
|---|---|---|---|---|---|
| 2026-04-26 18:44 | 42.78204 | -71.51813 | 208 ft | 0 kts | 32° |
| 2026-04-26 18:46 | 42.78175 | -71.51749 | 211 ft | 20 kts | 124° |
| 2026-04-26 18:46 | 42.78149 | -71.51590 | 201 ft | 15 kts | 124° |
| 2026-04-26 18:46 | 42.78027 | -71.51336 | 200 ft | 42 kts | 123° |
| 2026-04-26 18:47 | 42.77877 | -71.51017 | 199 ft | 41 kts | 123° |
| 2026-04-26 18:47 | 42.77712 | -71.50667 | 197 ft | 33 kts | 124° |
| 2026-04-26 18:47 | 42.78204 | -71.51813 | 208 ft | 0 kts | 32° |
| 2026-04-26 18:47 | 42.78206 | -71.51809 | 209 ft | 6 kts | 63° |
| 2026-04-26 18:48 | 42.78151 | -71.51641 | 202 ft | 25 kts | 79° |
| 2026-04-26 18:48 | 42.78040 | -71.51363 | 208 ft | 48 kts | 123° |
| 2026-04-26 18:48 | 42.77846 | -71.50960 | 198 ft | 50 kts | 121° |
| 2026-04-26 18:48 | 42.77678 | -71.50576 | 197 ft | 34 kts | 91° |
| 2026-04-26 18:49 | 42.77813 | -71.50501 | 196 ft | 19 kts | 298° |
| 2026-04-26 18:49 | 42.77843 | -71.50567 | 202 ft | 0 kts | 304° |
| 2026-04-26 18:50 | 42.77921 | -71.50732 | 199 ft | 56 kts | 303° |
| 2026-04-26 18:50 | 42.78245 | -71.51412 | 200 ft | 111 kts | 302° |
| 2026-04-26 18:50 | 42.78666 | -71.52309 | 572 ft | 111 kts | 302° |
| 2026-04-26 18:50 | 42.79111 | -71.53156 | 1005 ft | 109 kts | 305° |
| 2026-04-26 18:51 | 42.79523 | -71.53558 | 1123 ft | 125 kts | 357° |
| 2026-04-26 18:51 | 42.79865 | -71.52692 | 1357 ft | 137 kts | 122° |
| 2026-04-26 18:51 | 42.79044 | -71.51216 | 1488 ft | 152 kts | 128° |
| 2026-04-26 18:51 | 42.78411 | -71.50103 | 1701 ft | 151 kts | 130° |
| 2026-04-26 18:52 | 42.77716 | -71.48986 | 1726 ft | 156 kts | 132° |
| 2026-04-26 18:52 | 42.77254 | -71.48259 | 1880 ft | 152 kts | 132° |
| 2026-04-26 18:52 | 42.76614 | -71.47193 | 2131 ft | 138 kts | 127° |
| 2026-04-26 18:52 | 42.76003 | -71.46188 | 2219 ft | 140 kts | 125° |
| 2026-04-26 18:53 | 42.75916 | -71.44947 | 2182 ft | 147 kts | 65° |
| 2026-04-26 18:53 | 42.76738 | -71.44070 | 2158 ft | 155 kts | 20° |
| 2026-04-26 18:53 | 42.77761 | -71.44137 | 1618 ft | 150 kts | 338° |
| 2026-04-26 18:53 | 42.78560 | -71.45077 | 1010 ft | 165 kts | 315° |
| 2026-04-26 18:54 | 42.79414 | -71.46040 | 540 ft | 147 kts | 330° |
| 2026-04-26 18:54 | 42.80284 | -71.46613 | 137 ft | 131 kts | 346° |
| 2026-04-26 18:54 | 42.81006 | -71.46841 | 133 ft | 82 kts | 352° |
| 2026-04-26 18:54 | 42.81242 | -71.46921 | 124 ft | 0 kts | 224° |
| 2026-04-26 18:55 | 42.81241 | -71.46921 | 128 ft | 0 kts | 221° |